Time;durP1;ratioP1;P1;durP2;ratioP2;P2;SDS_P1;SDS_P2;PMS_P1;PMS_P2;Temp;Humidity;BMP_temperature;BMP_pressure;BME280_temperature;BME280_humidity;BME280_pressure;Samples;Min_cycle;Max_cycle;Signal;HPM_P1;HPM_P2
2021/10/07 00:01:13;;;;;;;15.75;13.30;;;;;;;11.90;100.00;99419.92;2176067;82;20989;-91
2021/10/07 00:04:13;;;;;;;15.65;13.18;;;;;;;11.91;100.00;99422.37;2176157;81;21053;-92
2021/10/07 00:07:14;;;;;;;17.17;13.30;;;;;;;11.93;100.00;99420.89;2176296;82;21077;-90
2021/10/07 00:10:15;;;;;;;16.57;13.68;;;;;;;11.94;100.00;99417.27;2176216;82;20930;-92
2021/10/07 00:13:16;;;;;;;15.30;12.07;;;;;;;11.98;100.00;99421.67;2176291;82;21545;-91
2021/10/07 00:16:17;;;;;;;15.80;12.85;;;;;;;11.99;100.00;99428.09;2176116;82;20981;-92
2021/10/07 00:19:18;;;;;;;15.40;12.85;;;;;;;12.03;100.00;99424.61;2175648;82;21512;-91
2021/10/07 00:22:18;;;;;;;17.05;13.88;;;;;;;12.02;100.00;99426.92;2175701;82;21599;-92
2021/10/07 00:25:19;;;;;;;18.50;14.90;;;;;;;12.03;100.00;99426.74;2175595;82;21049;-91
2021/10/07 00:28:20;;;;;;;22.27;18.25;;;;;;;12.05;100.00;99431.81;2175959;81;21001;-91
2021/10/07 00:31:23;;;;;;;16.95;13.55;;;;;;;12.03;100.00;99432.48;2175751;82;21045;-91
2021/10/07 00:39:02;;;;;;;20.17;14.93;;;;;;;12.05;100.00;99439.19;2176035;82;20973;-92
2021/10/07 00:40:29;;;;;;;18.30;14.65;;;;;;;12.08;100.00;99438.88;2172336;82;21017;-93
2021/10/07 00:43:30;;;;;;;18.77;13.38;;;;;;;12.03;100.00;99441.67;2176559;82;21666;-93
2021/10/07 00:46:31;;;;;;;17.92;13.93;;;;;;;11.98;100.00;99443.52;2176305;82;20989;-92
2021/10/07 00:49:33;;;;;;;16.30;12.15;;;;;;;11.98;100.00;99450.55;2176228;82;21017;-93
2021/10/07 00:52:34;;;;;;;14.07;11.57;;;;;;;11.92;100.00;99450.75;2176226;81;20977;-93
2021/10/07 00:55:35;;;;;;;18.87;13.45;;;;;;;11.84;100.00;99450.77;2176171;82;21033;-92
2021/10/07 00:58:36;;;;;;;15.80;12.43;;;;;;;11.82;100.00;99452.75;2176282;82;21464;-92
2021/10/07 01:01:36;;;;;;;16.37;12.18;;;;;;;11.83;100.00;99452.58;2176154;82;21005;-92
2021/10/07 01:04:37;;;;;;;16.25;13.13;;;;;;;11.82;100.00;99454.88;2176392;82;21048;-93
2021/10/07 01:07:38;;;;;;;15.00;11.73;;;;;;;11.82;100.00;99456.20;2176428;82;21021;-94
2021/10/07 01:10:39;;;;;;;18.87;14.47;;;;;;;11.78;100.00;99458.78;2176330;82;21085;-93
2021/10/07 01:13:40;;;;;;;16.10;13.10;;;;;;;11.74;100.00;99458.00;2176408;82;21009;-93
2021/10/07 01:16:40;;;;;;;17.52;14.45;;;;;;;11.69;100.00;99459.80;2176216;82;21060;-92
2021/10/07 01:19:41;;;;;;;21.27;13.98;;;;;;;11.66;100.00;99450.47;2176120;82;21053;-93
2021/10/07 01:22:42;;;;;;;17.48;13.35;;;;;;;11.63;100.00;99452.63;2175541;82;21108;-94
2021/10/07 01:25:43;;;;;;;21.55;15.80;;;;;;;11.63;100.00;99450.00;2176007;82;20989;-94
2021/10/07 01:28:44;;;;;;;24.55;15.25;;;;;;;11.62;100.00;99445.25;2176078;82;21097;-94
2021/10/07 01:31:45;;;;;;;20.88;14.13;;;;;;;11.63;100.00;99461.30;2176303;82;21489;-94
2021/10/07 01:34:46;;;;;;;23.65;13.65;;;;;;;11.60;100.00;99462.93;2176489;82;21027;-93
2021/10/07 01:37:47;;;;;;;18.57;13.65;;;;;;;11.57;100.00;99460.66;2176298;82;21019;-93
2021/10/07 01:40:47;;;;;;;20.08;14.38;;;;;;;11.56;100.00;99467.39;2176518;82;20989;-93
2021/10/07 01:43:48;;;;;;;20.48;15.13;;;;;;;11.51;100.00;99469.18;2176313;82;21160;-91
2021/10/07 01:46:49;;;;;;;20.65;14.63;;;;;;;11.49;100.00;99470.34;2176231;82;21457;-93
2021/10/07 01:49:50;;;;;;;21.27;14.20;;;;;;;11.46;100.00;99475.44;2178554;82;21395;-93
2021/10/07 01:52:51;;;;;;;18.67;14.60;;;;;;;11.44;100.00;99473.48;2179562;82;21100;-92
2021/10/07 01:55:51;;;;;;;24.37;15.40;;;;;;;11.42;100.00;99475.42;2179544;82;20938;-92
2021/10/07 01:58:52;;;;;;;24.43;14.53;;;;;;;11.43;100.00;99481.48;2179685;81;20985;-94
2021/10/07 02:01:53;;;;;;;22.82;15.23;;;;;;;11.44;100.00;99477.41;2179727;82;20981;-95
2021/10/07 02:04:57;;;;;;;19.92;14.68;;;;;;;11.40;100.00;99479.53;2179795;82;21105;-96
2021/10/07 02:07:57;;;;;;;20.80;15.55;;;;;;;11.34;100.00;99475.47;2179843;82;21477;-93
2021/10/07 02:10:58;;;;;;;23.87;15.80;;;;;;;11.33;100.00;99476.42;2179400;82;20986;-92
2021/10/07 02:14:00;;;;;;;23.12;14.45;;;;;;;11.32;100.00;99472.98;2179279;82;20984;-92
2021/10/07 02:17:01;;;;;;;26.87;15.95;;;;;;;11.32;100.00;99474.30;2179263;82;21013;-90
2021/10/07 02:20:02;;;;;;;21.70;14.53;;;;;;;11.32;100.00;99476.91;2179394;82;21052;-90
2021/10/07 02:23:03;;;;;;;26.12;15.10;;;;;;;11.27;100.00;99480.54;2179441;82;21057;-92
2021/10/07 02:26:03;;;;;;;20.27;14.05;;;;;;;11.21;100.00;99484.30;2180058;82;21464;-91
2021/10/07 02:29:04;;;;;;;20.32;14.85;;;;;;;11.21;100.00;99484.30;2179557;82;21024;-94
2021/10/07 02:32:05;;;;;;;20.12;15.20;;;;;;;11.20;100.00;99484.80;2179940;82;20915;-94
2021/10/07 02:35:06;;;;;;;26.77;15.50;;;;;;;11.21;100.00;99494.79;2180051;82;20968;-93
2021/10/07 02:38:07;;;;;;;20.97;16.23;;;;;;;11.19;100.00;99487.59;2179876;82;21000;-92
2021/10/07 02:41:07;;;;;;;27.17;20.45;;;;;;;11.21;100.00;99490.86;2179670;82;20973;-91
2021/10/07 02:44:08;;;;;;;32.58;18.27;;;;;;;11.23;100.00;99493.64;2179468;82;21084;-92
2021/10/07 02:47:09;;;;;;;26.85;17.02;;;;;;;11.23;100.00;99500.19;2179363;82;21453;-93
2021/10/07 02:50:10;;;;;;;34.53;24.40;;;;;;;11.24;100.00;99496.58;2176061;82;21009;-92
2021/10/07 02:53:10;;;;;;;25.68;20.08;;;;;;;11.20;100.00;99503.15;2176355;82;20993;-93
2021/10/07 02:56:11;;;;;;;27.02;19.25;;;;;;;11.18;100.00;99504.30;2176508;82;20954;-90
2021/10/07 02:59:12;;;;;;;28.30;19.55;;;;;;;11.11;100.00;99502.82;2176239;82;21012;-89
2021/10/07 03:02:15;;;;;;;28.73;21.25;;;;;;;11.05;100.00;99500.34;2176391;82;21026;-91
2021/10/07 03:05:16;;;;;;;25.00;17.85;;;;;;;11.01;100.00;99495.61;2176257;82;21397;-91
2021/10/07 03:08:17;;;;;;;28.05;14.23;;;;;;;10.97;100.00;99502.99;2176540;82;21077;-93
2021/10/07 03:11:17;;;;;;;25.10;15.90;;;;;;;10.93;100.00;99505.59;2176685;82;21029;-92
2021/10/07 03:14:18;;;;;;;23.50;13.78;;;;;;;10.90;100.00;99503.31;2176444;82;21065;-90
2021/10/07 03:17:19;;;;;;;23.62;15.43;;;;;;;10.88;100.00;99512.29;2176212;82;20970;-88
2021/10/07 03:20:20;;;;;;;25.68;16.17;;;;;;;10.82;100.00;99513.77;2176104;82;20997;-90
2021/10/07 03:23:20;;;;;;;23.77;15.70;;;;;;;10.78;100.00;99511.95;2177133;82;21468;-89
2021/10/07 03:26:21;;;;;;;24.15;16.27;;;;;;;10.77;100.00;99514.24;2151515;82;20974;-90
2021/10/07 03:29:22;;;;;;;24.02;17.73;;;;;;;10.74;100.00;99525.54;2178717;82;20969;-90
2021/10/07 03:32:23;;;;;;;25.60;17.40;;;;;;;10.73;100.00;99527.34;2178397;81;21066;-91
2021/10/07 03:35:24;;;;;;;22.98;16.60;;;;;;;10.71;100.00;99524.56;2178405;82;21002;-90
2021/10/07 03:38:25;;;;;;;28.83;16.30;;;;;;;10.65;100.00;99523.39;2178312;82;21624;-90
2021/10/07 03:41:26;;;;;;;21.75;14.30;;;;;;;10.61;100.00;99519.96;2178357;82;21049;-90
2021/10/07 03:44:30;;;;;;;20.00;14.13;;;;;;;10.51;100.00;99531.39;2177275;82;21572;-89
2021/10/07 03:47:30;;;;;;;19.15;12.50;;;;;;;10.47;100.00;99535.78;2178939;82;20997;-89
2021/10/07 03:50:30;;;;;;;27.10;15.83;;;;;;;10.43;100.00;99543.14;2171916;82;21101;-91
2021/10/07 03:53:31;;;;;;;19.87;14.98;;;;;;;10.40;100.00;99544.75;2171755;82;21018;-91
2021/10/07 03:56:32;;;;;;;23.20;14.70;;;;;;;10.36;100.00;99548.67;2171579;82;21066;-90
2021/10/07 03:59:33;;;;;;;24.65;15.88;;;;;;;10.35;100.00;99557.51;2169705;82;21089;-92
2021/10/07 04:02:34;;;;;;;24.37;16.15;;;;;;;10.34;100.00;99552.44;2170457;82;22141;-91
2021/10/07 04:05:34;;;;;;;23.25;14.25;;;;;;;10.28;100.00;99562.22;2170285;82;21021;-89
2021/10/07 04:08:35;;;;;;;19.70;13.75;;;;;;;10.21;100.00;99554.95;2170850;82;21492;-91
2021/10/07 04:11:36;;;;;;;25.02;13.62;;;;;;;10.14;100.00;99565.70;2171172;82;20966;-91
2021/10/07 04:14:37;;;;;;;24.30;13.10;;;;;;;10.14;100.00;99565.70;2171663;82;20983;-93
2021/10/07 04:17:38;;;;;;;21.50;13.50;;;;;;;10.17;100.00;99572.45;2170593;82;21048;-92
2021/10/07 04:20:38;;;;;;;22.40;12.90;;;;;;;10.20;100.00;99577.36;2170110;82;21485;-92
2021/10/07 04:23:39;;;;;;;21.17;13.28;;;;;;;10.21;100.00;99579.81;2170238;82;20994;-91
2021/10/07 04:26:40;;;;;;;18.77;12.47;;;;;;;10.24;100.00;99586.55;2170666;82;21062;-92
2021/10/07 04:29:41;;;;;;;15.10;12.40;;;;;;;10.25;100.00;99585.12;2170809;82;20999;-90
2021/10/07 04:32:42;;;;;;;17.25;12.85;;;;;;;10.28;100.00;99591.00;2170834;82;20989;-93
2021/10/07 04:35:45;;;;;;;22.58;15.18;;;;;;;10.28;100.00;99591.83;2170474;82;21062;-93
2021/10/07 04:38:46;;;;;;;21.52;14.00;;;;;;;10.24;100.00;99587.41;2170836;82;20993;-91
2021/10/07 04:41:49;;;;;;;22.80;14.43;;;;;;;10.22;100.00;99593.26;2169936;82;21049;-89
2021/10/07 04:44:51;;;;;;;23.47;14.03;;;;;;;10.21;100.00;99592.89;2150239;82;20970;-90
2021/10/07 04:47:52;;;;;;;20.90;13.65;;;;;;;10.21;100.00;99597.31;2170383;82;21469;-93
2021/10/07 04:50:53;;;;;;;23.85;15.45;;;;;;;10.17;100.00;99607.28;2169008;82;21065;-90
2021/10/07 04:53:54;;;;;;;29.48;15.83;;;;;;;10.18;100.00;99602.87;2169367;82;20998;-91
2021/10/07 04:56:54;;;;;;;24.67;14.45;;;;;;;10.22;100.00;99614.20;2169077;82;21021;-88
2021/10/07 04:59:55;;;;;;;32.78;16.87;;;;;;;10.23;100.00;99607.98;2157329;82;20906;-90
2021/10/07 05:02:57;;;;;;;24.30;13.70;;;;;;;10.23;100.00;99613.70;2171330;80;21064;-91
2021/10/07 05:05:57;;;;;;;19.62;12.82;;;;;;;10.22;100.00;99613.37;2214507;80;21127;-89
2021/10/07 05:08:58;;;;;;;17.37;11.88;;;;;;;10.20;100.00;99620.53;2169541;82;21000;-90
2021/10/07 05:11:59;;;;;;;26.35;15.93;;;;;;;10.16;100.00;99621.34;2169355;82;21582;-86
2021/10/07 05:15:00;;;;;;;19.80;14.55;;;;;;;10.16;100.00;99620.53;2136083;83;20998;-89
2021/10/07 05:18:00;;;;;;;16.62;12.95;;;;;;;10.13;100.00;99626.87;2215927;80;21048;-89
2021/10/07 05:21:01;;;;;;;19.62;13.58;;;;;;;10.11;100.00;99623.59;2216147;80;20982;-91
2021/10/07 05:24:02;;;;;;;21.33;12.93;;;;;;;10.13;100.00;99624.25;2216378;80;21056;-93
2021/10/07 05:27:03;;;;;;;20.02;14.45;;;;;;;10.15;100.00;99624.94;2216357;80;21493;-91
2021/10/07 05:30:04;;;;;;;19.35;13.22;;;;;;;10.16;100.00;99623.97;2216287;80;20949;-91
2021/10/07 05:33:05;;;;;;;16.52;12.10;;;;;;;10.16;100.00;99625.27;2216411;80;21040;-92
2021/10/07 05:36:06;;;;;;;21.97;13.28;;;;;;;10.17;100.00;99632.64;2216317;80;21009;-91
2021/10/07 05:39:06;;;;;;;18.40;13.43;;;;;;;10.16;100.00;99625.77;2170606;82;21024;-91
2021/10/07 05:42:07;;;;;;;21.12;12.18;;;;;;;10.18;100.00;99639.02;2137678;83;21554;-88
2021/10/07 05:45:10;;;;;;;18.07;12.33;;;;;;;10.20;100.00;99636.24;2216445;80;21010;-91
2021/10/07 05:48:11;;;;;;;13.45;11.65;;;;;;;10.23;100.00;99640.70;2216585;80;21008;-88
2021/10/07 05:51:11;;;;;;;16.45;11.65;;;;;;;10.29;100.00;99646.30;2223576;80;21513;-89
2021/10/07 05:54:12;;;;;;;15.90;11.60;;;;;;;10.34;100.00;99650.11;2176870;82;21004;-88
2021/10/07 05:57:13;;;;;;;18.80;11.65;;;;;;;10.39;100.00;99651.76;2144223;83;21013;-88
2021/10/07 06:00:14;;;;;;;16.97;11.08;;;;;;;10.48;100.00;99654.75;2154559;82;21049;-88
2021/10/07 06:03:15;;;;;;;18.27;11.45;;;;;;;10.54;100.00;99654.14;2154741;82;21004;-91
2021/10/07 06:06:16;;;;;;;17.45;12.13;;;;;;;10.57;100.00;99658.23;2154584;83;21545;-90
2021/10/07 06:09:17;;;;;;;15.40;12.18;;;;;;;10.59;100.00;99660.20;2154940;82;21056;-91
2021/10/07 06:12:18;;;;;;;17.70;12.00;;;;;;;10.66;100.00;99660.41;2154658;82;20962;-89
2021/10/07 06:15:18;;;;;;;17.80;11.38;;;;;;;10.66;100.00;99654.67;2154760;83;21017;-90
2021/10/07 06:18:20;;;;;;;14.40;10.48;;;;;;;10.72;100.00;99652.75;2154679;83;21461;-89
2021/10/07 06:21:21;;;;;;;17.32;12.18;;;;;;;10.76;100.00;99658.48;2154687;82;21487;-91
2021/10/07 06:24:22;;;;;;;14.73;10.70;;;;;;;10.76;100.00;99656.68;2154489;83;21020;-89
2021/10/07 06:27:23;;;;;;;12.18;9.05;;;;;;;10.83;100.00;99655.56;2154903;82;21080;-90
2021/10/07 06:30:23;;;;;;;15.20;10.23;;;;;;;10.90;100.00;99661.83;2154482;83;20981;-89
2021/10/07 06:33:24;;;;;;;14.23;11.53;;;;;;;10.97;100.00;99670.70;2154510;82;21556;-91
2021/10/07 06:36:25;;;;;;;18.77;10.68;;;;;;;11.07;100.00;99675.80;2154728;82;21042;-91
2021/10/07 06:39:26;;;;;;;15.53;11.15;;;;;;;11.15;100.00;99666.63;2154878;82;21005;-92
2021/10/07 06:42:27;;;;;;;15.30;10.82;;;;;;;11.24;100.00;99667.47;2154688;83;21577;-90
2021/10/07 06:45:29;;;;;;;15.38;10.65;;;;;;;11.33;100.00;99670.44;2154657;82;21580;-90
2021/10/07 06:48:30;;;;;;;12.65;9.98;;;;;;;11.39;100.00;99665.37;2154107;82;21679;-90
2021/10/07 06:51:31;;;;;;;13.88;10.60;;;;;;;11.47;100.00;99675.56;2154149;83;21072;-90
2021/10/07 06:54:32;;;;;;;11.90;9.60;;;;;;;11.55;100.00;99679.51;2154840;82;21024;-90
2021/10/07 06:57:33;;;;;;;15.05;10.40;;;;;;;11.57;100.00;99680.98;2154062;83;21473;-90
2021/10/07 07:00:35;;;;;;;19.57;11.43;;;;;;;11.66;100.00;99690.49;2154326;83;21064;-90
2021/10/07 07:03:37;;;;;;;16.23;10.70;;;;;;;11.66;100.00;99695.74;2154366;82;21092;-89
2021/10/07 07:06:38;;;;;;;14.70;10.20;;;;;;;11.67;100.00;99691.31;2154571;82;21021;-88
2021/10/07 07:09:39;;;;;;;14.98;11.33;;;;;;;11.73;100.00;99691.16;2154551;82;21601;-90
2021/10/07 07:12:40;;;;;;;13.22;9.68;;;;;;;11.79;100.00;99702.30;2154024;82;21081;-90
2021/10/07 07:15:41;;;;;;;12.82;10.08;;;;;;;11.87;100.00;99704.47;2154492;82;21058;-90
2021/10/07 07:18:42;;;;;;;13.43;11.03;;;;;;;11.97;100.00;99706.93;2154663;83;21006;-89
2021/10/07 07:21:42;;;;;;;13.53;10.32;;;;;;;11.99;100.00;99704.17;2154389;83;21021;-90
2021/10/07 07:24:44;;;;;;;12.15;10.75;;;;;;;12.02;100.00;99706.45;2154462;82;20954;-90
2021/10/07 07:27:45;;;;;;;17.07;11.40;;;;;;;12.08;100.00;99709.25;2154537;82;21012;-90
2021/10/07 07:30:48;;;;;;;13.05;9.58;;;;;;;12.12;100.00;99706.61;2154375;83;20954;-90
2021/10/07 07:33:49;;;;;;;14.15;11.05;;;;;;;12.13;100.00;99709.55;2154418;82;21081;-89
2021/10/07 07:36:50;;;;;;;15.98;10.82;;;;;;;12.17;100.00;99707.44;2154526;82;21034;-89
2021/10/07 07:39:51;;;;;;;13.50;10.38;;;;;;;12.19;100.00;99719.90;2154478;82;21128;-90
2021/10/07 07:42:52;;;;;;;15.68;11.43;;;;;;;12.28;100.00;99719.41;2154486;83;21081;-89
2021/10/07 07:45:53;;;;;;;13.40;9.40;;;;;;;12.28;100.00;99719.41;2154416;82;21093;-89
2021/10/07 07:48:54;;;;;;;15.20;10.25;;;;;;;12.34;100.00;99727.91;2154114;82;21041;-89
2021/10/07 07:51:55;;;;;;;15.25;10.75;;;;;;;12.30;100.00;99722.67;2147226;82;20990;-89
2021/10/07 07:54:56;;;;;;;11.83;9.43;;;;;;;12.38;100.00;99728.73;2147503;82;22089;-89
2021/10/07 07:57:57;;;;;;;11.05;8.78;;;;;;;12.47;100.00;99725.61;2147278;83;21062;-90
2021/10/07 08:00:58;;;;;;;15.58;9.98;;;;;;;12.60;100.00;99742.16;2147389;82;21472;-89
2021/10/07 08:03:59;;;;;;;15.70;10.15;;;;;;;12.60;100.00;99742.16;2147452;82;21085;-89
2021/10/07 08:07:00;;;;;;;12.20;9.68;;;;;;;12.66;100.00;99737.55;2216113;80;21049;-89
2021/10/07 08:10:01;;;;;;;14.13;9.30;;;;;;;12.78;100.00;99735.70;2215814;80;21008;-89
2021/10/07 08:13:03;;;;;;;12.82;9.03;;;;;;;12.90;100.00;99749.32;2216019;80;20996;-90
2021/10/07 08:16:04;;;;;;;10.90;9.23;;;;;;;12.98;100.00;99756.34;2216444;80;21497;-89
2021/10/07 08:19:05;;;;;;;13.75;9.65;;;;;;;13.05;100.00;99759.44;2216031;80;21520;-90
2021/10/07 08:22:06;;;;;;;13.58;9.90;;;;;;;13.09;100.00;99751.55;2216032;80;21008;-89
2021/10/07 08:25:07;;;;;;;16.27;10.60;;;;;;;13.22;100.00;99762.86;2215941;80;21028;-89
2021/10/07 08:28:08;;;;;;;11.60;9.25;;;;;;;13.33;100.00;99757.21;2216200;80;21064;-91
2021/10/07 08:31:09;;;;;;;12.82;9.88;;;;;;;13.34;100.00;99762.80;2216109;80;21008;-88
2021/10/07 08:34:10;;;;;;;16.05;11.68;;;;;;;13.37;100.00;99757.21;2216157;80;21048;-89
2021/10/07 08:37:11;;;;;;;14.33;10.18;;;;;;;13.42;100.00;99764.56;2170048;82;20946;-89
2021/10/07 08:40:12;;;;;;;12.50;10.53;;;;;;;13.47;100.00;99767.52;2136890;83;20979;-89
2021/10/07 08:43:13;;;;;;;13.20;9.80;;;;;;;13.52;99.03;99769.12;2215794;80;20972;-90
2021/10/07 08:46:14;;;;;;;14.07;10.08;;;;;;;13.52;100.00;99767.80;2215658;80;21016;-90
2021/10/07 08:49:15;;;;;;;15.78;9.73;;;;;;;13.56;100.00;99770.92;2216127;80;21056;-88
2021/10/07 08:52:16;;;;;;;11.63;9.85;;;;;;;13.55;100.00;99768.80;2223004;80;21003;-90
2021/10/07 08:55:18;;;;;;;10.98;8.85;;;;;;;13.59;100.00;99771.39;2223355;80;21056;-90
2021/10/07 08:58:19;;;;;;;15.48;10.08;;;;;;;13.65;100.00;99771.20;2223607;80;21508;-89
2021/10/07 09:01:20;;;;;;;13.60;9.83;;;;;;;13.68;100.00;99773.97;2176931;82;20989;-90
2021/10/07 09:04:21;;;;;;;13.53;9.50;;;;;;;13.71;99.47;99773.13;2144105;83;21145;-87
2021/10/07 09:07:22;;;;;;;10.88;8.98;;;;;;;13.75;100.00;99777.06;2143981;83;20974;-91
2021/10/07 09:10:23;;;;;;;20.60;10.32;;;;;;;13.73;98.49;99783.50;2143941;83;21058;-91
2021/10/07 09:13:25;;;;;;;13.10;9.08;;;;;;;13.73;99.12;99784.32;2154388;82;20969;-90
2021/10/07 09:16:26;;;;;;;15.88;10.15;;;;;;;13.73;98.86;99783.00;2154333;83;21049;-89
2021/10/07 09:19:27;;;;;;;11.05;9.63;;;;;;;13.76;98.99;99773.93;2153868;83;21360;-90
2021/10/07 09:22:35;;;;;;;13.78;9.55;;;;;;;13.69;96.87;99774.30;2153591;82;21032;-90
2021/10/07 09:25:39;;;;;;;14.60;9.63;;;;;;;13.70;97.93;99775.93;2153372;83;21588;-90
2021/10/07 09:28:42;;;;;;;13.55;9.45;;;;;;;13.83;98.23;99777.51;2153300;82;21062;-90
2021/10/07 09:31:44;;;;;;;12.18;8.53;;;;;;;13.93;96.68;99776.78;2131560;83;21513;-91
2021/10/07 09:34:47;;;;;;;8.93;7.70;;;;;;;13.96;95.67;99783.00;2133503;83;21040;-90
2021/10/07 09:37:59;;;;;;;;;;;;;;;;;;;;;
2021/10/07 09:40:52;;;;;;;12.15;8.85;;;;;;;14.12;96.48;99786.02;2150118;82;21058;-91
2021/10/07 09:50:13;;;;;;;13.28;8.95;;;;;;;14.45;95.36;99780.84;2105816;82;21042;-90
2021/10/07 09:53:12;;;;;;;12.93;9.13;;;;;;;14.56;95.40;99774.83;2162033;82;21080;-90
2021/10/07 09:56:26;;;;;;;;;;;;;;;;;;;;;
2021/10/07 09:59:19;;;;;;;9.95;8.68;;;;;;;14.75;93.72;99787.48;2174278;82;21126;-90
2021/10/07 10:02:22;;;;;;;12.88;8.78;;;;;;;14.88;94.79;99781.57;2177770;82;21568;-90
2021/10/07 10:05:25;;;;;;;11.45;8.35;;;;;;;14.94;93.65;99788.77;2174660;82;21029;-89
2021/10/07 10:08:36;;;;;;;;;;;;;;;;;;;;;
2021/10/07 10:11:40;;;;;;;13.05;8.53;;;;;;;15.11;92.53;99784.12;2068426;86;21129;-90
2021/10/07 10:14:34;;;;;;;12.85;8.78;;;;;;;15.04;91.21;99787.48;2035951;87;21075;-90
2021/10/07 10:17:37;;;;;;;15.38;9.75;;;;;;;15.03;91.17;99785.86;2039285;87;21100;-90
2021/10/07 10:20:53;;;;;;;12.63;8.30;;;;;;;15.12;91.24;99781.31;2038753;87;21116;-90
2021/10/07 10:23:59;;;;;;;;;;;;;;;;;;;;;
2021/10/07 10:26:51;;;;;;;12.98;7.65;;;;;;;15.25;90.29;99772.23;2026060;87;21033;-91
2021/10/07 10:29:55;;;;;;;12.47;8.20;;;;;;;15.25;88.80;99772.73;2038989;87;21125;-90
2021/10/07 10:33:07;;;;;;;13.70;8.00;;;;;;;15.27;88.95;99783.91;1944492;90;21143;-90
2021/10/07 10:36:07;;;;;;;11.55;8.18;;;;;;;15.33;87.33;99773.45;1970892;90;21049;-91
2021/10/07 10:39:06;;;;;;;12.93;9.40;;;;;;;15.32;87.08;99776.28;1973478;90;21166;-91
2021/10/07 10:42:12;;;;;;;9.63;7.83;;;;;;;15.38;88.23;99780.02;1956219;91;21117;-91
2021/10/07 10:45:13;;;;;;;11.35;8.43;;;;;;;15.35;86.00;99775.90;1956187;91;21557;-91
2021/10/07 10:48:14;;;;;;;13.28;8.90;;;;;;;15.39;86.80;99775.05;2006012;86;21055;-90
2021/10/07 10:51:17;;;;;;;10.63;8.05;;;;;;;15.35;84.52;99778.54;2060299;86;21073;-90
2021/10/07 10:54:23;;;;;;;13.88;8.30;;;;;;;15.38;85.72;99780.02;2015216;86;21012;-90
2021/10/07 10:57:31;;;;;;;8.60;7.80;;;;;;;15.41;84.97;99779.63;2063126;86;21056;-90
2021/10/07 11:00:31;;;;;;;16.97;8.18;;;;;;;15.36;84.64;99775.73;1996443;89;21083;-90
2021/10/07 11:03:33;;;;;;;10.65;7.35;;;;;;;15.36;84.33;99767.83;2027140;86;21145;-91
2021/10/07 11:06:43;;;;;;;14.13;8.18;;;;;;;15.42;85.51;99775.98;2063000;86;21639;-90
2021/10/07 11:09:54;;;;;;;14.73;8.90;;;;;;;15.45;85.69;99766.38;2071125;86;21116;-90
2021/10/07 11:12:50;;;;;;;11.57;8.68;;;;;;;15.48;85.52;99777.39;2066261;86;21088;-90
2021/10/07 11:16:04;;;;;;;;;;;;;;;;;;;;;
2021/10/07 11:18:55;;;;;;;11.97;9.53;;;;;;;15.45;85.16;99772.47;2067409;86;21067;-90
2021/10/07 11:21:58;;;;;;;14.07;9.13;;;;;;;15.36;83.39;99774.89;2064808;86;21099;-90
2021/10/07 11:25:10;;;;;;;14.47;9.53;;;;;;;15.34;84.11;99780.86;2070791;86;21087;-91
2021/10/07 11:28:04;;;;;;;10.60;8.65;;;;;;;15.31;83.57;99782.56;2068946;86;21004;-90
2021/10/07 11:31:09;;;;;;;12.70;8.68;;;;;;;15.22;84.36;99781.84;2069082;86;21076;-90
2021/10/07 11:34:14;;;;;;;14.13;9.03;;;;;;;15.22;84.17;99781.84;2069755;86;21524;-91
2021/10/07 11:37:23;;;;;;;15.78;9.18;;;;;;;15.22;84.21;99769.97;2125810;80;20985;-90
2021/10/07 11:40:31;;;;;;;;;;;;;;;;;;;;;
2021/10/07 11:43:24;;;;;;;9.08;8.18;;;;;;;15.25;81.78;99775.37;2219432;80;21483;-90
2021/10/07 11:46:29;;;;;;;11.22;8.75;;;;;;;15.26;83.06;99765.95;2221300;80;21665;-91
2021/10/07 11:49:40;;;;;;;8.75;7.40;;;;;;;15.30;83.08;99771.69;2221437;80;21531;-91
2021/10/07 11:52:36;;;;;;;8.18;7.25;;;;;;;15.28;81.34;99767.11;2208319;80;21047;-91
2021/10/07 11:55:48;;;;;;;;;;;;;;;;;;;;;
2021/10/07 11:58:50;;;;;;;8.60;5.67;;;;;;;15.22;78.20;99790.26;2222429;80;21012;-91
2021/10/07 12:02:07;;;;;;;;;;;;;;;;;;;;;
2021/10/07 12:04:57;;;;;;;10.15;6.90;;;;;;;15.16;78.33;99779.11;2209095;80;21055;-90
2021/10/07 12:08:07;;;;;;;;;;;;;;;;;;;;;
2021/10/07 12:11:10;;;;;;;9.83;6.15;;;;;;;15.12;76.08;99787.90;2224613;80;21048;-91
2021/10/07 12:14:15;;;;;;;12.98;6.72;;;;;;;15.07;76.34;99789.75;2225592;80;21526;-90
2021/10/07 12:17:16;;;;;;;7.95;5.45;;;;;;;14.97;72.85;99803.71;2146084;83;21100;-90
2021/10/07 12:20:17;;;;;;;8.13;5.72;;;;;;;14.88;71.97;99806.12;2146202;83;21484;-89
2021/10/07 12:23:23;;;;;;;7.08;6.30;;;;;;;14.83;72.46;99807.17;2146220;83;22227;-91
2021/10/07 12:26:25;;;;;;;11.50;5.78;;;;;;;14.76;70.79;99799.66;2140826;83;21572;-91
2021/10/07 12:29:25;;;;;;;10.23;6.33;;;;;;;14.71;71.32;99796.23;2146835;83;21084;-91
2021/10/07 12:32:26;;;;;;;11.60;6.58;;;;;;;14.70;71.93;99803.00;2146653;83;21000;-90
2021/10/07 12:35:27;;;;;;;9.43;5.92;;;;;;;14.67;72.23;99809.46;2146645;83;21080;-90
2021/10/07 12:38:32;;;;;;;10.90;5.50;;;;;;;14.60;69.87;99812.98;2146297;83;21548;-91
2021/10/07 12:41:42;;;;;;;;;;;;;;;;;;;;;
2021/10/07 12:44:46;;;;;;;;;;;;;;;;;;;;;
2021/10/07 12:47:57;;;;;;;8.75;6.20;;;;;;;14.62;70.89;99805.72;2168166;80;21186;-90
2021/10/07 12:50:54;;;;;;;8.53;6.00;;;;;;;14.60;69.38;99818.26;2217860;80;21583;-89
2021/10/07 12:57:04;;;;;;;;;;;;;;;;;;;;;
2021/10/07 13:00:16;;;;;;;;;;;;;;;;;;;;;
2021/10/07 13:03:14;;;;;;;11.65;5.85;;;;;;;14.43;69.37;99814.41;2224478;80;21065;-88
2021/10/07 13:06:31;;;;;;;;;;;;;;;;;;;;;
2021/10/07 13:09:39;;;;;;;;;;;;;;;;;;;;;
2021/10/07 13:12:52;;;;;;;;;;;;;;;;;;;;;
2021/10/07 13:15:48;;;;;;;9.53;5.55;;;;;;;14.34;68.30;99815.47;2218010;80;20981;-93
2021/10/07 13:18:52;;;;;;;12.60;6.80;;;;;;;14.34;68.75;99813.34;2222450;80;21031;-93
2021/10/07 13:21:53;;;;;;;12.25;6.15;;;;;;;14.33;68.98;99823.05;2222942;80;21115;-91
2021/10/07 13:24:58;;;;;;;11.35;6.12;;;;;;;14.34;70.02;99826.51;2194413;80;21112;-89
2021/10/07 13:28:01;;;;;;;10.60;5.78;;;;;;;14.35;69.10;99840.00;2221914;80;21028;-91
2021/10/07 13:31:04;;;;;;;8.88;5.35;;;;;;;14.35;68.54;99839.50;2213946;80;21040;-92
2021/10/07 13:34:07;;;;;;;11.53;5.42;;;;;;;14.35;69.11;99840.00;2223407;80;21120;-91
2021/10/07 13:37:28;;;;;;;;;;;;;;;;;;;;;
2021/10/07 13:40:24;;;;;;;13.00;5.65;;;;;;;14.27;69.07;99842.22;2111558;82;21053;-93
2021/10/07 13:43:37;;;;;;;9.35;5.30;;;;;;;14.23;68.69;99840.92;2158078;82;21104;-89
2021/10/07 13:46:49;;;;;;;;;;;;;;;;;;;;;
2021/10/07 13:50:09;;;;;;;;;;;;;;;;;;;;;
2021/10/07 13:53:13;;;;;;;7.37;3.92;;;;;;;14.18;67.65;99840.14;2157591;82;21206;-90
2021/10/07 13:56:08;;;;;;;9.83;4.80;;;;;;;14.14;65.88;99859.09;2131539;82;21026;-89
2021/10/07 13:59:17;;;;;;;9.33;4.85;;;;;;;14.09;65.70;99858.80;1963722;91;21068;-88
2021/10/07 14:02:30;;;;;;;;;;;;;;;;;;;;;
2021/10/07 14:12:03;;;;;;;10.85;4.80;;;;;;;13.99;64.92;99864.30;1953618;91;21064;-93
2021/10/07 14:15:09;;;;;;;8.05;4.62;;;;;;;13.98;64.66;99856.05;1945344;90;21051;-91
2021/10/07 14:18:12;;;;;;;12.45;5.47;;;;;;;13.99;66.01;99859.03;1968125;90;21494;-90
2021/10/07 14:21:24;;;;;;;;;;;;;;;;;;;;;
2021/10/07 14:24:19;;;;;;;10.15;5.17;;;;;;;13.94;64.30;99853.45;1949118;90;21126;-89
2021/10/07 14:27:19;;;;;;;7.53;5.03;;;;;;;13.90;64.66;99855.63;1967991;90;21019;-89
2021/10/07 14:30:20;;;;;;;13.28;6.05;;;;;;;13.85;63.37;99861.89;1968126;90;21604;-88
2021/10/07 14:33:21;;;;;;;14.98;8.35;;;;;;;13.82;64.29;99863.56;1967926;90;21215;-89
2021/10/07 14:36:22;;;;;;;18.37;11.50;;;;;;;13.80;65.27;99865.52;2061740;82;21715;-88
2021/10/07 14:39:25;;;;;;;13.32;5.92;;;;;;;13.77;65.19;99868.52;2155269;82;21025;-89
2021/10/07 14:42:29;;;;;;;16.42;6.00;;;;;;;13.74;64.85;99866.23;2180283;80;21570;-89
2021/10/07 14:45:32;;;;;;;10.03;4.70;;;;;;;13.70;64.06;99874.13;2215536;80;21009;-90
2021/10/07 14:48:32;;;;;;;10.70;5.35;;;;;;;13.66;63.31;99880.73;2215677;80;21100;-90